sensor_id;sensor_type;location;lat;lon;timestamp;pressure;altitude;pressure_sealevel;temperature;humidity
56334;BME280;42240;53.626;55.886;2023-07-22T00:00:51;74741.97;;;-145.10;100.00
56334;BME280;42240;53.626;55.886;2023-07-22T00:02:25;74741.97;;;-145.10;100.00
56334;BME280;42240;53.626;55.886;2023-07-22T00:03:58;74730.13;;;-145.10;100.00
56334;BME280;42240;53.626;55.886;2023-07-22T00:05:32;74741.97;;;-145.10;100.00
56334;BME280;42240;53.626;55.886;2023-07-22T00:07:07;74741.97;;;-145.10;100.00
56334;BME280;42240;53.626;55.886;2023-07-22T00:08:41;74741.97;;;-145.10;100.00
56334;BME280;42240;53.626;55.886;2023-07-22T00:10:15;74743.97;;;-145.10;100.00
56334;BME280;42240;53.626;55.886;2023-07-22T00:11:49;74738.03;;;-145.10;100.00
56334;BME280;42240;53.626;55.886;2023-07-22T00:13:24;74730.13;;;-145.10;100.00
56334;BME280;42240;53.626;55.886;2023-07-22T00:14:59;74749.88;;;-145.10;100.00
56334;BME280;42240;53.626;55.886;2023-07-22T00:16:34;74745.94;;;-145.10;100.00
56334;BME280;42240;53.626;55.886;2023-07-22T00:18:08;74751.84;;;-145.10;100.00
56334;BME280;42240;53.626;55.886;2023-07-22T00:19:42;74747.91;;;-145.10;100.00
56334;BME280;42240;53.626;55.886;2023-07-22T00:21:15;74743.97;;;-145.10;100.00
56334;BME280;42240;53.626;55.886;2023-07-22T00:22:48;74734.06;;;-145.10;100.00
56334;BME280;42240;53.626;55.886;2023-07-22T00:24:23;74732.09;;;-145.10;100.00
56334;BME280;42240;53.626;55.886;2023-07-22T00:25:57;74722.22;;;-145.10;100.00
56334;BME280;42240;53.626;55.886;2023-07-22T00:27:30;74722.22;;;-145.10;100.00
56334;BME280;42240;53.626;55.886;2023-07-22T00:29:04;74722.22;;;-145.10;100.00
56334;BME280;42240;53.626;55.886;2023-07-22T00:30:38;74710.34;;;-145.10;100.00
56334;BME280;42240;53.626;55.886;2023-07-22T00:32:14;74710.34;;;-145.10;100.00
56334;BME280;42240;53.626;55.886;2023-07-22T00:33:48;74726.16;;;-145.10;100.00
56334;BME280;42240;53.626;55.886;2023-07-22T00:35:22;74734.06;;;-145.10;100.00
56334;BME280;42240;53.626;55.886;2023-07-22T00:36:55;74738.03;;;-145.10;100.00
56334;BME280;42240;53.626;55.886;2023-07-22T00:38:29;74732.09;;;-145.10;100.00
56334;BME280;42240;53.626;55.886;2023-07-22T00:40:03;74726.16;;;-145.10;100.00
56334;BME280;42240;53.626;55.886;2023-07-22T00:41:39;74718.25;;;-145.10;100.00
56334;BME280;42240;53.626;55.886;2023-07-22T00:43:13;74716.28;;;-145.10;100.00
56334;BME280;42240;53.626;55.886;2023-07-22T00:44:47;74712.34;;;-145.10;100.00
56334;BME280;42240;53.626;55.886;2023-07-22T00:46:21;74706.41;;;-145.10;100.00
56334;BME280;42240;53.626;55.886;2023-07-22T00:47:58;74698.50;;;-145.10;100.00
56334;BME280;42240;53.626;55.886;2023-07-22T00:49:32;74690.59;;;-145.10;100.00
56334;BME280;42240;53.626;55.886;2023-07-22T00:51:05;74698.50;;;-145.10;100.00
56334;BME280;42240;53.626;55.886;2023-07-22T00:52:39;74718.25;;;-145.10;100.00
56334;BME280;42240;53.626;55.886;2023-07-22T00:54:13;74749.88;;;-145.10;100.00
56334;BME280;42240;53.626;55.886;2023-07-22T00:55:48;74763.72;;;-145.10;100.00
56334;BME280;42240;53.626;55.886;2023-07-22T00:57:23;74811.16;;;-145.10;100.00
56334;BME280;42240;53.626;55.886;2023-07-22T00:58:56;74842.78;;;-145.10;100.00
56334;BME280;42240;53.626;55.886;2023-07-22T01:00:30;74848.72;;;-145.10;100.00
56334;BME280;42240;53.626;55.886;2023-07-22T01:02:04;74856.63;;;-145.10;100.00
56334;BME280;42240;53.626;55.886;2023-07-22T01:03:41;74836.84;;;-145.10;100.00
56334;BME280;42240;53.626;55.886;2023-07-22T01:05:14;74834.88;;;-145.10;100.00
56334;BME280;42240;53.626;55.886;2023-07-22T01:06:52;74821.03;;;-145.10;100.00
56334;BME280;42240;53.626;55.886;2023-07-22T01:08:27;74815.09;;;-145.10;100.00
56334;BME280;42240;53.626;55.886;2023-07-22T01:10:01;74811.16;;;-145.10;100.00
56334;BME280;42240;53.626;55.886;2023-07-22T01:11:35;74809.19;;;-145.10;100.00
56334;BME280;42240;53.626;55.886;2023-07-22T01:13:09;74809.19;;;-145.10;100.00
56334;BME280;42240;53.626;55.886;2023-07-22T01:14:42;74805.22;;;-145.10;100.00
56334;BME280;42240;53.626;55.886;2023-07-22T01:16:16;74811.16;;;-145.10;100.00
56334;BME280;42240;53.626;55.886;2023-07-22T01:17:50;74821.03;;;-145.10;100.00
56334;BME280;42240;53.626;55.886;2023-07-22T01:19:25;74817.09;;;-145.10;100.00
56334;BME280;42240;53.626;55.886;2023-07-22T01:20:58;74817.09;;;-145.10;100.00
56334;BME280;42240;53.626;55.886;2023-07-22T01:22:33;74809.19;;;-145.10;100.00
56334;BME280;42240;53.626;55.886;2023-07-22T01:24:08;74819.06;;;-145.10;100.00
56334;BME280;42240;53.626;55.886;2023-07-22T01:25:43;74815.09;;;-145.10;100.00
56334;BME280;42240;53.626;55.886;2023-07-22T01:27:17;74821.03;;;-145.10;100.00
56334;BME280;42240;53.626;55.886;2023-07-22T01:28:50;74825.00;;;-145.10;100.00
56334;BME280;42240;53.626;55.886;2023-07-22T01:30:24;74825.00;;;-145.10;100.00
56334;BME280;42240;53.626;55.886;2023-07-22T01:32:00;74836.84;;;-145.10;100.00
56334;BME280;42240;53.626;55.886;2023-07-22T01:33:34;74826.97;;;-145.10;100.00
56334;BME280;42240;53.626;55.886;2023-07-22T01:35:09;74821.03;;;-145.10;100.00
56334;BME280;42240;53.626;55.886;2023-07-22T01:36:44;74779.53;;;-145.10;100.00
56334;BME280;42240;53.626;55.886;2023-07-22T01:38:18;74730.13;;;-145.10;100.00
56334;BME280;42240;53.626;55.886;2023-07-22T01:39:52;74743.97;;;-145.10;100.00
56334;BME280;42240;53.626;55.886;2023-07-22T01:41:31;74745.94;;;-145.10;100.00
56334;BME280;42240;53.626;55.886;2023-07-22T01:43:05;74755.81;;;-145.10;100.00
56334;BME280;42240;53.626;55.886;2023-07-22T01:44:40;74749.88;;;-145.10;100.00
56334;BME280;42240;53.626;55.886;2023-07-22T01:46:14;74736.06;;;-145.10;100.00
56334;BME280;42240;53.626;55.886;2023-07-22T01:47:47;74722.22;;;-145.10;100.00
56334;BME280;42240;53.626;55.886;2023-07-22T01:49:21;74708.38;;;-145.10;100.00
56334;BME280;42240;53.626;55.886;2023-07-22T01:50:54;74682.69;;;-145.10;100.00
56334;BME280;42240;53.626;55.886;2023-07-22T01:52:28;74658.97;;;-145.10;100.00
56334;BME280;42240;53.626;55.886;2023-07-22T01:54:02;74603.63;;;-145.10;100.00
56334;BME280;42240;53.626;55.886;2023-07-22T01:55:36;74637.22;;;-145.10;100.00
56334;BME280;42240;53.626;55.886;2023-07-22T01:57:10;74645.13;;;-145.10;100.00
56334;BME280;42240;53.626;55.886;2023-07-22T01:58:44;74655.00;;;-145.10;100.00
56334;BME280;42240;53.626;55.886;2023-07-22T02:00:18;74676.75;;;-145.10;100.00
56334;BME280;42240;53.626;55.886;2023-07-22T02:01:54;74694.53;;;-145.10;100.00
56334;BME280;42240;53.626;55.886;2023-07-22T02:03:28;74712.34;;;-145.10;100.00
56334;BME280;42240;53.626;55.886;2023-07-22T02:05:02;74718.25;;;-145.10;100.00
56334;BME280;42240;53.626;55.886;2023-07-22T02:06:36;74726.16;;;-145.10;100.00
56334;BME280;42240;53.626;55.886;2023-07-22T02:08:09;74722.22;;;-145.10;100.00
56334;BME280;42240;53.626;55.886;2023-07-22T02:09:43;74708.38;;;-145.10;100.00
56334;BME280;42240;53.626;55.886;2023-07-22T02:11:17;74710.34;;;-145.10;100.00
56334;BME280;42240;53.626;55.886;2023-07-22T02:12:51;74722.22;;;-145.10;100.00
56334;BME280;42240;53.626;55.886;2023-07-22T02:14:24;74736.06;;;-145.10;100.00
56334;BME280;42240;53.626;55.886;2023-07-22T02:16:01;74728.16;;;-145.10;100.00
56334;BME280;42240;53.626;55.886;2023-07-22T02:17:35;74722.22;;;-145.10;100.00
56334;BME280;42240;53.626;55.886;2023-07-22T02:19:29;74706.41;;;-145.10;100.00
56334;BME280;42240;53.626;55.886;2023-07-22T02:21:03;74722.22;;;-145.10;100.00
56334;BME280;42240;53.626;55.886;2023-07-22T02:22:37;74736.06;;;-145.10;100.00
56334;BME280;42240;53.626;55.886;2023-07-22T02:24:12;74734.06;;;-145.10;100.00
56334;BME280;42240;53.626;55.886;2023-07-22T02:25:50;74728.16;;;-145.10;100.00
56334;BME280;42240;53.626;55.886;2023-07-22T02:27:24;74726.16;;;-145.10;100.00
56334;BME280;42240;53.626;55.886;2023-07-22T02:28:57;74710.34;;;-145.10;100.00
56334;BME280;42240;53.626;55.886;2023-07-22T02:30:35;74704.44;;;-145.10;100.00
56334;BME280;42240;53.626;55.886;2023-07-22T02:32:08;74710.34;;;-145.10;100.00
56334;BME280;42240;53.626;55.886;2023-07-22T02:33:42;74712.34;;;-145.10;100.00
56334;BME280;42240;53.626;55.886;2023-07-22T02:35:23;74700.47;;;-145.10;100.00
56334;BME280;42240;53.626;55.886;2023-07-22T02:36:57;74696.53;;;-145.10;100.00
56334;BME280;42240;53.626;55.886;2023-07-22T02:38:30;74702.44;;;-145.10;100.00
56334;BME280;42240;53.626;55.886;2023-07-22T02:40:05;74680.72;;;-145.10;100.00
56334;BME280;42240;53.626;55.886;2023-07-22T02:41:44;74664.91;;;-145.10;100.00
56334;BME280;42240;53.626;55.886;2023-07-22T02:43:17;74666.88;;;-145.10;100.00
56334;BME280;42240;53.626;55.886;2023-07-22T02:44:51;74651.06;;;-145.10;100.00
56334;BME280;42240;53.626;55.886;2023-07-22T02:46:25;74631.28;;;-145.10;100.00
56334;BME280;42240;53.626;55.886;2023-07-22T02:48:00;74615.47;;;-145.10;100.00
56334;BME280;42240;53.626;55.886;2023-07-22T02:49:34;74609.56;;;-145.10;100.00
56334;BME280;42240;53.626;55.886;2023-07-22T02:51:09;74595.72;;;-145.10;100.00
56334;BME280;42240;53.626;55.886;2023-07-22T02:52:43;74572.00;;;-145.10;100.00
56334;BME280;42240;53.626;55.886;2023-07-22T02:54:19;74572.00;;;-145.10;100.00
56334;BME280;42240;53.626;55.886;2023-07-22T02:55:53;74579.91;;;-145.10;100.00
56334;BME280;42240;53.626;55.886;2023-07-22T02:57:27;74579.91;;;-145.10;100.00
56334;BME280;42240;53.626;55.886;2023-07-22T02:59:00;74603.63;;;-145.10;100.00
56334;BME280;42240;53.626;55.886;2023-07-22T03:00:34;74631.28;;;-145.10;100.00
56334;BME280;42240;53.626;55.886;2023-07-22T03:02:07;74627.34;;;-145.10;100.00
56334;BME280;42240;53.626;55.886;2023-07-22T03:03:41;74627.34;;;-145.10;100.00
56334;BME280;42240;53.626;55.886;2023-07-22T03:05:15;74639.19;;;-145.10;100.00
56334;BME280;42240;53.626;55.886;2023-07-22T03:06:49;74637.22;;;-145.10;100.00
56334;BME280;42240;53.626;55.886;2023-07-22T03:08:23;74647.09;;;-145.10;100.00
56334;BME280;42240;53.626;55.886;2023-07-22T03:09:57;74639.19;;;-145.10;100.00
56334;BME280;42240;53.626;55.886;2023-07-22T03:11:32;74631.28;;;-145.10;100.00
56334;BME280;42240;53.626;55.886;2023-07-22T03:13:07;74635.25;;;-145.10;100.00
56334;BME280;42240;53.626;55.886;2023-07-22T03:14:41;74649.09;;;-145.10;100.00
56334;BME280;42240;53.626;55.886;2023-07-22T03:16:15;74655.00;;;-145.10;100.00
56334;BME280;42240;53.626;55.886;2023-07-22T03:17:49;74655.00;;;-145.10;100.00
56334;BME280;42240;53.626;55.886;2023-07-22T03:19:23;74653.03;;;-145.10;100.00
56334;BME280;42240;53.626;55.886;2023-07-22T03:20:58;74629.31;;;-145.10;100.00
56334;BME280;42240;53.626;55.886;2023-07-22T03:22:32;74625.38;;;-145.10;100.00
56334;BME280;42240;53.626;55.886;2023-07-22T03:24:05;74627.34;;;-145.10;100.00
56334;BME280;42240;53.626;55.886;2023-07-22T03:25:39;74494.94;;;-145.10;100.00
56334;BME280;42240;53.626;55.886;2023-07-22T03:27:14;74417.84;;;-145.10;100.00
56334;BME280;42240;53.626;55.886;2023-07-22T03:28:50;74429.72;;;-145.10;100.00
56334;BME280;42240;53.626;55.886;2023-07-22T03:30:27;74360.53;;;-145.10;100.00
56334;BME280;42240;53.626;55.886;2023-07-22T03:32:01;74236.03;;;-145.10;100.00
56334;BME280;42240;53.626;55.886;2023-07-22T03:33:34;74070.03;;;-145.10;100.00
56334;BME280;42240;53.626;55.886;2023-07-22T03:35:09;74077.94;;;-145.10;100.00
56334;BME280;42240;53.626;55.886;2023-07-22T03:36:45;74155.00;;;-145.10;100.00
56334;BME280;42240;53.626;55.886;2023-07-22T03:38:19;74228.13;;;-145.10;100.00
56334;BME280;42240;53.626;55.886;2023-07-22T03:39:53;74234.06;;;-145.10;100.00
56334;BME280;42240;53.626;55.886;2023-07-22T03:41:27;74267.66;;;-145.10;100.00
56334;BME280;42240;53.626;55.886;2023-07-22T03:43:01;74307.19;;;-145.10;100.00
56334;BME280;42240;53.626;55.886;2023-07-22T03:44:34;74326.94;;;-145.10;100.00
56334;BME280;42240;53.626;55.886;2023-07-22T03:46:08;74196.50;;;-145.10;100.00
56334;BME280;42240;53.626;55.886;2023-07-22T03:47:44;74212.31;;;-145.10;100.00
56334;BME280;42240;53.626;55.886;2023-07-22T03:49:19;74257.78;;;-145.10;100.00
56334;BME280;42240;53.626;55.886;2023-07-22T03:50:52;74293.34;;;-145.10;100.00
56334;BME280;42240;53.626;55.886;2023-07-22T03:52:41;74322.97;;;-145.10;100.00
56334;BME280;42240;53.626;55.886;2023-07-22T03:54:14;74344.72;;;-145.10;100.00
56334;BME280;42240;53.626;55.886;2023-07-22T03:55:48;74370.41;;;-145.10;100.00
56334;BME280;42240;53.626;55.886;2023-07-22T03:57:28;74384.25;;;-145.10;100.00
56334;BME280;42240;53.626;55.886;2023-07-22T03:59:01;74386.22;;;-145.10;100.00
56334;BME280;42240;53.626;55.886;2023-07-22T04:00:35;74409.94;;;-145.10;100.00
56334;BME280;42240;53.626;55.886;2023-07-22T04:02:08;74406.00;;;-145.10;100.00
56334;BME280;42240;53.626;55.886;2023-07-22T04:03:43;74413.91;;;-145.10;100.00
56334;BME280;42240;53.626;55.886;2023-07-22T04:05:16;74404.00;;;-145.10;100.00
56334;BME280;42240;53.626;55.886;2023-07-22T04:06:51;74441.56;;;-145.10;100.00
56334;BME280;42240;53.626;55.886;2023-07-22T04:08:24;74437.63;;;-145.10;100.00
56334;BME280;42240;53.626;55.886;2023-07-22T04:09:58;74471.22;;;-145.10;100.00
56334;BME280;42240;53.626;55.886;2023-07-22T04:11:32;74481.09;;;-145.10;100.00
56334;BME280;42240;53.626;55.886;2023-07-22T04:13:06;74465.28;;;-145.10;100.00
56334;BME280;42240;53.626;55.886;2023-07-22T04:14:40;74461.31;;;-145.10;100.00
56334;BME280;42240;53.626;55.886;2023-07-22T04:16:14;74451.44;;;-145.10;100.00
56334;BME280;42240;53.626;55.886;2023-07-22T04:17:48;74406.00;;;-145.10;100.00
56334;BME280;42240;53.626;55.886;2023-07-22T04:19:22;74402.03;;;-145.10;100.00
56334;BME280;42240;53.626;55.886;2023-07-22T04:20:56;74362.50;;;-145.10;100.00
56334;BME280;42240;53.626;55.886;2023-07-22T04:22:32;74346.69;;;-145.10;100.00
56334;BME280;42240;53.626;55.886;2023-07-22T04:24:06;74326.94;;;-145.10;100.00
56334;BME280;42240;53.626;55.886;2023-07-22T04:25:40;74319.03;;;-145.10;100.00
56334;BME280;42240;53.626;55.886;2023-07-22T04:27:15;74307.19;;;-145.10;100.00
56334;BME280;42240;53.626;55.886;2023-07-22T04:28:50;74309.16;;;-145.10;100.00
56334;BME280;42240;53.626;55.886;2023-07-22T04:30:24;74058.19;;;-145.10;100.00
56334;BME280;42240;53.626;55.886;2023-07-22T04:32:00;73921.81;;;-145.10;100.00
56334;BME280;42240;53.626;55.886;2023-07-22T04:33:33;73751.88;;;-145.10;100.00
56334;BME280;42240;53.626;55.886;2023-07-22T04:35:07;73734.09;;;-145.10;100.00
56334;BME280;42240;53.626;55.886;2023-07-22T04:36:41;73803.25;;;-145.10;100.00
56334;BME280;42240;53.626;55.886;2023-07-22T04:38:16;73939.59;;;-145.10;100.00
56334;BME280;42240;53.626;55.886;2023-07-22T04:39:50;73943.56;;;-145.10;100.00
56334;BME280;42240;53.626;55.886;2023-07-22T04:41:24;73967.28;;;-145.10;100.00
56334;BME280;42240;53.626;55.886;2023-07-22T04:43:01;74058.19;;;-145.10;100.00
56334;BME280;42240;53.626;55.886;2023-07-22T04:44:35;74058.19;;;-145.10;100.00
56334;BME280;42240;53.626;55.886;2023-07-22T04:46:08;74097.69;;;-145.10;100.00
56334;BME280;42240;53.626;55.886;2023-07-22T04:47:42;74081.88;;;-145.10;100.00
56334;BME280;42240;53.626;55.886;2023-07-22T04:49:18;74103.63;;;-145.10;100.00
56334;BME280;42240;53.626;55.886;2023-07-22T04:50:51;74091.78;;;-145.10;100.00
56334;BME280;42240;53.626;55.886;2023-07-22T04:52:25;74109.56;;;-145.10;100.00
56334;BME280;42240;53.626;55.886;2023-07-22T04:54:02;73868.47;;;-145.10;100.00
56334;BME280;42240;53.626;55.886;2023-07-22T04:55:35;73643.19;;;-145.10;100.00
56334;BME280;42240;53.626;55.886;2023-07-22T04:57:13;73502.91;;;-145.10;100.00
56334;BME280;42240;53.626;55.886;2023-07-22T04:58:50;73303.34;;;-145.10;100.00
56334;BME280;42240;53.626;55.886;2023-07-22T05:00:24;73305.34;;;-145.10;100.00
56334;BME280;42240;53.626;55.886;2023-07-22T05:01:58;73315.22;;;-145.10;97.48
56334;BME280;42240;53.626;55.886;2023-07-22T05:03:32;73378.44;;;-145.10;100.00
56334;BME280;42240;53.626;55.886;2023-07-22T05:05:06;73378.44;;;-145.10;100.00
56334;BME280;42240;53.626;55.886;2023-07-22T05:06:39;73481.19;;;-145.10;100.00
56334;BME280;42240;53.626;55.886;2023-07-22T05:08:13;73560.22;;;-145.10;100.00
56334;BME280;42240;53.626;55.886;2023-07-22T05:09:50;73591.84;;;-145.10;100.00
56334;BME280;42240;53.626;55.886;2023-07-22T05:11:25;73651.09;;;-145.10;100.00
56334;BME280;42240;53.626;55.886;2023-07-22T05:12:58;73661.00;;;-145.10;100.00
56334;BME280;42240;53.626;55.886;2023-07-22T05:14:32;73781.53;;;-145.10;100.00
56334;BME280;42240;53.626;55.886;2023-07-22T05:16:06;73763.75;;;-145.10;100.00
56334;BME280;42240;53.626;55.886;2023-07-22T05:17:40;73757.81;;;-145.10;100.00
56334;BME280;42240;53.626;55.886;2023-07-22T05:19:13;73759.78;;;-145.10;100.00
56334;BME280;42240;53.626;55.886;2023-07-22T05:20:47;73740.03;;;-145.10;100.00
56334;BME280;42240;53.626;55.886;2023-07-22T05:22:21;73734.09;;;-145.10;100.00
56334;BME280;42240;53.626;55.886;2023-07-22T05:23:54;73730.16;;;-145.10;100.00
56334;BME280;42240;53.626;55.886;2023-07-22T05:25:28;73736.06;;;-145.10;100.00
56334;BME280;42240;53.626;55.886;2023-07-22T05:27:02;73732.13;;;-145.10;100.00
56334;BME280;42240;53.626;55.886;2023-07-22T05:28:41;73740.03;;;-145.10;100.00
56334;BME280;42240;53.626;55.886;2023-07-22T05:30:15;73718.28;;;-145.10;100.00
56334;BME280;42240;53.626;55.886;2023-07-22T05:32:08;73718.28;;;-145.10;100.00
56334;BME280;42240;53.626;55.886;2023-07-22T05:34:01;73724.22;;;-145.10;100.00
56334;BME280;42240;53.626;55.886;2023-07-22T05:35:35;73724.22;;;-145.10;100.00
56334;BME280;42240;53.626;55.886;2023-07-22T05:37:08;73714.34;;;-145.10;100.00
56334;BME280;42240;53.626;55.886;2023-07-22T05:38:42;73698.53;;;-145.10;100.00
56334;BME280;42240;53.626;55.886;2023-07-22T05:40:15;73682.72;;;-145.10;100.00
56334;BME280;42240;53.626;55.886;2023-07-22T05:41:50;73670.88;;;-145.10;100.00
56334;BME280;42240;53.626;55.886;2023-07-22T05:43:23;73643.19;;;-145.10;100.00
56334;BME280;42240;53.626;55.886;2023-07-22T05:44:58;73583.94;;;-145.10;100.00
56334;BME280;42240;53.626;55.886;2023-07-22T05:46:32;73579.97;;;-145.10;99.38
56334;BME280;42240;53.626;55.886;2023-07-22T05:48:06;73568.13;;;-145.10;99.17
56334;BME280;42240;53.626;55.886;2023-07-22T05:49:39;73560.22;;;-145.10;100.00
56334;BME280;42240;53.626;55.886;2023-07-22T05:51:14;73583.94;;;-145.10;100.00
56334;BME280;42240;53.626;55.886;2023-07-22T05:52:48;73576.03;;;-145.10;100.00
56334;BME280;42240;53.626;55.886;2023-07-22T05:54:22;73603.69;;;-145.10;99.65
56334;BME280;42240;53.626;55.886;2023-07-22T05:55:56;73611.59;;;-145.10;99.44
56334;BME280;42240;53.626;55.886;2023-07-22T05:57:29;73631.34;;;-145.10;96.83
56334;BME280;42240;53.626;55.886;2023-07-22T05:59:03;73655.06;;;-145.10;97.14
56334;BME280;42240;53.626;55.886;2023-07-22T06:00:37;73680.75;;;-145.10;96.81
56334;BME280;42240;53.626;55.886;2023-07-22T06:02:14;73686.69;;;-145.10;97.44
56334;BME280;42240;53.626;55.886;2023-07-22T06:03:48;73680.75;;;-145.10;98.85
56334;BME280;42240;53.626;55.886;2023-07-22T06:05:22;73682.72;;;-145.10;100.00
56334;BME280;42240;53.626;55.886;2023-07-22T06:06:55;73686.69;;;-145.10;100.00
56334;BME280;42240;53.626;55.886;2023-07-22T06:08:29;73710.38;;;-145.10;100.00
56334;BME280;42240;53.626;55.886;2023-07-22T06:10:03;73702.47;;;-145.10;100.00
56334;BME280;42240;53.626;55.886;2023-07-22T06:11:37;73732.13;;;-145.10;100.00
56334;BME280;42240;53.626;55.886;2023-07-22T06:13:11;73745.94;;;-145.10;100.00
56334;BME280;42240;53.626;55.886;2023-07-22T06:14:44;73757.81;;;-145.10;100.00
56334;BME280;42240;53.626;55.886;2023-07-22T06:16:19;73769.66;;;-145.10;100.00
56334;BME280;42240;53.626;55.886;2023-07-22T06:17:53;73781.53;;;-145.10;100.00
56334;BME280;42240;53.626;55.886;2023-07-22T06:19:27;73789.44;;;-145.10;100.00
56334;BME280;42240;53.626;55.886;2023-07-22T06:21:00;73797.34;;;-145.10;100.00
56334;BME280;42240;53.626;55.886;2023-07-22T06:22:34;73773.63;;;-145.10;100.00
56334;BME280;42240;53.626;55.886;2023-07-22T06:24:11;73775.59;;;-145.10;100.00
56334;BME280;42240;53.626;55.886;2023-07-22T06:25:44;73743.97;;;-145.10;100.00
56334;BME280;42240;53.626;55.886;2023-07-22T06:27:20;73692.59;;;-145.10;100.00
56334;BME280;42240;53.626;55.886;2023-07-22T06:28:54;73666.91;;;-145.10;100.00
56334;BME280;42240;53.626;55.886;2023-07-22T06:30:28;73670.88;;;-145.10;100.00
56334;BME280;42240;53.626;55.886;2023-07-22T06:32:05;73668.88;;;-145.10;100.00
56334;BME280;42240;53.626;55.886;2023-07-22T06:33:39;73651.09;;;-145.10;100.00
56334;BME280;42240;53.626;55.886;2023-07-22T06:35:13;73641.22;;;-145.10;100.00
56334;BME280;42240;53.626;55.886;2023-07-22T06:36:49;73516.75;;;-145.10;100.00
56334;BME280;42240;53.626;55.886;2023-07-22T06:38:23;73524.66;;;-145.10;97.53
56334;BME280;42240;53.626;55.886;2023-07-22T06:39:57;73538.47;;;-145.10;98.61
56334;BME280;42240;53.626;55.886;2023-07-22T06:41:30;73570.09;;;-145.10;97.64
56334;BME280;42240;53.626;55.886;2023-07-22T06:43:04;73613.56;;;-145.10;95.47
56334;BME280;42240;53.626;55.886;2023-07-22T06:44:38;73631.34;;;-145.10;95.98
56334;BME280;42240;53.626;55.886;2023-07-22T06:46:14;73639.25;;;-145.10;99.03
56334;BME280;42240;53.626;55.886;2023-07-22T06:47:48;73649.13;;;-145.10;99.30
56334;BME280;42240;53.626;55.886;2023-07-22T06:49:22;73639.25;;;-145.10;100.00
56334;BME280;42240;53.626;55.886;2023-07-22T06:50:56;73639.25;;;-145.10;100.00
56334;BME280;42240;53.626;55.886;2023-07-22T06:52:30;73635.31;;;-145.10;98.94
56334;BME280;42240;53.626;55.886;2023-07-22T06:54:04;73635.31;;;-145.10;100.00
56334;BME280;42240;53.626;55.886;2023-07-22T06:55:38;73647.16;;;-145.10;98.94
56334;BME280;42240;53.626;55.886;2023-07-22T06:57:11;73651.09;;;-145.10;100.00
56334;BME280;42240;53.626;55.886;2023-07-22T06:58:45;73645.19;;;-145.10;100.00
56334;BME280;42240;53.626;55.886;2023-07-22T07:00:18;73631.34;;;-145.10;100.00
56334;BME280;42240;53.626;55.886;2023-07-22T07:01:55;73631.34;;;-145.10;100.00
56334;BME280;42240;53.626;55.886;2023-07-22T07:03:29;73633.31;;;-145.10;100.00
56334;BME280;42240;53.626;55.886;2023-07-22T07:05:03;73631.34;;;-145.10;100.00
56334;BME280;42240;53.626;55.886;2023-07-22T07:06:38;73564.16;;;-145.10;100.00
56334;BME280;42240;53.626;55.886;2023-07-22T07:08:12;73548.38;;;-145.10;99.83
56334;BME280;42240;53.626;55.886;2023-07-22T07:09:45;73532.56;;;-145.10;99.97
56334;BME280;42240;53.626;55.886;2023-07-22T07:11:19;73473.28;;;-145.10;100.00
56334;BME280;42240;53.626;55.886;2023-07-22T07:12:53;73479.22;;;-145.10;95.03
56334;BME280;42240;53.626;55.886;2023-07-22T07:14:27;73433.75;;;-145.10;93.65
56334;BME280;42240;53.626;55.886;2023-07-22T07:17:55;73358.69;;;-145.10;91.03
56334;BME280;42240;53.626;55.886;2023-07-22T07:19:29;73319.16;;;-145.10;89.47
56334;BME280;42240;53.626;55.886;2023-07-22T07:21:03;73327.06;;;-145.10;87.18
56334;BME280;42240;53.626;55.886;2023-07-22T07:22:36;73299.41;;;-145.10;88.19
56334;BME280;42240;53.626;55.886;2023-07-22T07:24:11;73346.81;;;-145.10;86.70
56334;BME280;42240;53.626;55.886;2023-07-22T07:25:44;73421.91;;;-145.10;82.11
56334;BME280;42240;53.626;55.886;2023-07-22T07:27:18;73449.56;;;-145.10;85.66
56334;BME280;42240;53.626;55.886;2023-07-22T07:28:54;73453.53;;;-145.10;85.98
56334;BME280;42240;53.626;55.886;2023-07-22T07:30:28;73453.53;;;-145.10;87.28
56334;BME280;42240;53.626;55.886;2023-07-22T07:32:01;73429.81;;;-145.10;90.53
56334;BME280;42240;53.626;55.886;2023-07-22T07:33:35;73433.75;;;-145.10;87.12
56334;BME280;42240;53.626;55.886;2023-07-22T07:35:08;73455.50;;;-145.10;87.30
56334;BME280;42240;53.626;55.886;2023-07-22T07:36:42;73469.31;;;-145.10;88.27
56334;BME280;42240;53.626;55.886;2023-07-22T07:38:15;73449.56;;;-145.10;87.73
56334;BME280;42240;53.626;55.886;2023-07-22T07:39:49;73457.47;;;-145.10;87.48
56334;BME280;42240;53.626;55.886;2023-07-22T07:41:23;73461.41;;;-145.10;88.02
56334;BME280;42240;53.626;55.886;2023-07-22T07:42:57;73449.56;;;-145.10;87.20
56334;BME280;42240;53.626;55.886;2023-07-22T07:44:31;73417.94;;;-145.10;84.80
56334;BME280;42240;53.626;55.886;2023-07-22T07:46:21;73370.53;;;-145.10;80.77
56334;BME280;42240;53.626;55.886;2023-07-22T07:47:56;73360.66;;;-145.10;79.87
56334;BME280;42240;53.626;55.886;2023-07-22T07:49:29;73317.19;;;-145.10;81.19
56334;BME280;42240;53.626;55.886;2023-07-22T07:51:03;73297.44;;;-145.10;79.76
56334;BME280;42240;53.626;55.886;2023-07-22T07:52:37;73279.66;;;-145.10;80.35
56334;BME280;42240;53.626;55.886;2023-07-22T07:54:11;73261.88;;;-145.10;74.78
56334;BME280;42240;53.626;55.886;2023-07-22T07:55:45;73208.53;;;-145.10;77.78
56334;BME280;42240;53.626;55.886;2023-07-22T07:57:19;73252.00;;;-145.10;73.80
56334;BME280;42240;53.626;55.886;2023-07-22T07:58:53;73279.66;;;-145.10;71.81